createdAt,value
2022-08-07T00:02:36.164Z,63.01
2022-08-07T00:04:11.203Z,63.26
2022-08-07T00:06:51.307Z,63.29
2022-08-07T00:09:29.167Z,63.68
2022-08-07T00:12:03.279Z,63.65
2022-08-07T00:14:32.618Z,63.96
2022-08-07T00:17:02.430Z,63.92
2022-08-07T00:20:00.399Z,64.82
2022-08-07T00:22:34.474Z,64.91
2022-08-07T00:25:15.748Z,65.19
2022-08-07T00:27:52.243Z,65.24
2022-08-07T00:30:27.364Z,65.33
2022-08-07T00:33:00.706Z,65.50
2022-08-07T00:35:31.412Z,65.58
2022-08-07T00:38:06.099Z,65.46
2022-08-07T00:40:39.960Z,65.44
2022-08-07T00:43:59.506Z,65.59
2022-08-07T00:46:02.522Z,65.66
2022-08-07T00:48:32.955Z,65.76
2022-08-07T00:51:01.234Z,66.06
2022-08-07T00:53:44.151Z,65.87
2022-08-07T00:56:19.854Z,65.95
2022-08-07T00:58:49.552Z,65.98
2022-08-07T01:01:18.462Z,66.15
2022-08-07T01:03:56.439Z,66.08
2022-08-07T01:06:30.449Z,66.12
2022-08-07T01:09:02.959Z,66.08
2022-08-07T01:12:09.583Z,66.20
2022-08-07T01:14:28.300Z,66.18
2022-08-07T01:16:59.697Z,66.19
2022-08-07T01:19:33.205Z,66.07
2022-08-07T01:22:03.155Z,66.19
2022-08-07T01:24:39.845Z,66.01
2022-08-07T01:27:19.673Z,66.13
2022-08-07T01:29:58.391Z,66.17
2022-08-07T01:32:30.797Z,66.23
2022-08-07T01:35:03.597Z,66.06
2022-08-07T01:37:33.776Z,66.08
2022-08-07T01:40:07.194Z,65.96
2022-08-07T01:42:58.624Z,65.91
2022-08-07T01:45:36.964Z,65.88
2022-08-07T01:48:18.091Z,65.87
2022-08-07T01:50:58.202Z,65.63
2022-08-07T01:54:12.540Z,65.49
2022-08-07T01:56:28.876Z,65.48
2022-08-07T01:59:15.671Z,65.54
2022-08-07T02:02:02.677Z,65.27
2022-08-07T02:04:56.273Z,65.15
2022-08-07T02:07:50.258Z,65.08
2022-08-07T02:10:32.506Z,64.95
2022-08-07T02:13:47.012Z,65.03
2022-08-07T02:16:19.825Z,65.21
2022-08-07T02:18:58.244Z,64.89
2022-08-07T02:21:27.077Z,64.70
2022-08-07T02:24:18.256Z,64.68
2022-08-07T02:26:48.283Z,64.41
2022-08-07T02:29:17.488Z,64.33
2022-08-07T02:31:54.621Z,64.32
2022-08-07T02:34:22.860Z,63.74
2022-08-07T02:36:59.298Z,63.47
2022-08-07T02:39:42.951Z,63.22
2022-08-07T02:42:19.794Z,62.84
2022-08-07T02:44:53.989Z,62.81
2022-08-07T02:47:28.858Z,62.18
2022-08-07T02:50:16.653Z,61.93
2022-08-07T02:53:06.366Z,61.06
2022-08-07T02:56:03.309Z,60.02
2022-08-07T02:58:34.383Z,54.88
2022-08-07T03:01:10.348Z,50.10
2022-08-07T03:03:50.875Z,46.65
2022-08-07T03:06:33.103Z,44.03
2022-08-07T03:09:11.343Z,42.26
2022-08-07T03:11:52.459Z,40.54
2022-08-07T03:14:34.879Z,38.66
2022-08-07T03:17:08.809Z,36.75
2022-08-07T03:19:40.099Z,35.83
2022-08-07T03:22:18.694Z,34.62
2022-08-07T03:24:51.468Z,36.10
2022-08-07T03:27:30.366Z,35.43
2022-08-07T03:30:06.072Z,39.32
2022-08-07T03:32:49.184Z,41.63
2022-08-07T03:35:43.785Z,41.72
2022-08-07T03:38:29.396Z,36.67
2022-08-07T03:41:02.080Z,32.88
2022-08-07T03:43:35.963Z,30.95
2022-08-07T03:46:18.305Z,29.38
2022-08-07T03:49:02.712Z,28.11
2022-08-07T03:51:47.640Z,27.31
2022-08-07T03:54:35.286Z,26.40
2022-08-07T03:58:35.250Z,26.12
2022-08-07T04:00:03.858Z,26.03
2022-08-07T04:02:47.196Z,26.74
2022-08-07T04:05:39.872Z,30.03
2022-08-07T04:08:23.841Z,32.69
2022-08-07T04:12:15.586Z,34.54
2022-08-07T04:14:10.878Z,35.73
2022-08-07T04:16:38.352Z,36.76
2022-08-07T04:19:15.096Z,37.46
2022-08-07T04:22:00.247Z,37.90
2022-08-07T04:24:42.878Z,38.96
2022-08-07T04:27:36.001Z,39.28
2022-08-07T04:30:11.644Z,39.03
2022-08-07T04:32:58.576Z,39.46
2022-08-07T04:35:35.290Z,40.18
2022-08-07T04:38:13.242Z,40.05
2022-08-07T04:40:51.923Z,40.40
2022-08-07T04:44:12.791Z,40.63
2022-08-07T04:46:59.617Z,40.98
2022-08-07T04:50:39.613Z,41.51
2022-08-07T04:53:39.959Z,41.50
2022-08-07T04:58:09.599Z,40.80
2022-08-07T05:00:12.442Z,41.31
2022-08-07T05:02:35.772Z,41.77
2022-08-07T05:05:53.057Z,42.17
2022-08-07T05:08:18.220Z,42.21
2022-08-07T05:11:19.703Z,42.12
2022-08-07T05:14:56.444Z,42.26
2022-08-07T05:16:55.413Z,42.46
2022-08-07T05:19:32.657Z,42.37
2022-08-07T05:22:26.804Z,42.32
2022-08-07T05:25:01.824Z,42.22
2022-08-07T05:28:03.030Z,41.92
2022-08-07T05:30:32.329Z,42.00
2022-08-07T05:33:06.319Z,41.99
2022-08-07T05:35:42.159Z,42.59
2022-08-07T05:39:01.014Z,42.44
2022-08-07T05:41:11.937Z,41.88
2022-08-07T05:44:07.724Z,41.54
2022-08-07T05:46:39.376Z,40.76
2022-08-07T05:49:12.483Z,40.74
2022-08-07T05:51:46.371Z,40.92
2022-08-07T05:54:31.329Z,40.94
2022-08-07T05:57:16.368Z,40.02
2022-08-07T05:59:55.759Z,39.88
2022-08-07T06:02:33.234Z,39.80
2022-08-07T06:05:15.513Z,39.78
2022-08-07T06:08:12.339Z,39.86
2022-08-07T06:10:42.908Z,39.24
2022-08-07T06:13:13.554Z,39.38
2022-08-07T06:15:46.877Z,38.55
2022-08-07T06:18:28.038Z,38.76
2022-08-07T06:22:14.500Z,38.67
2022-08-07T06:24:52.234Z,38.63
2022-08-07T06:26:43.235Z,38.67
2022-08-07T06:29:12.101Z,39.01
2022-08-07T06:31:49.506Z,38.31
2022-08-07T06:34:28.065Z,38.26
2022-08-07T06:36:59.826Z,37.72
2022-08-07T06:40:16.590Z,37.64
2022-08-07T06:42:37.578Z,37.51
2022-08-07T06:45:21.728Z,37.90
2022-08-07T06:47:59.207Z,37.22
2022-08-07T06:50:37.461Z,37.01
2022-08-07T06:53:18.600Z,36.92
2022-08-07T06:56:15.042Z,35.76
2022-08-07T07:00:12.029Z,34.80
2022-08-07T07:01:48.697Z,34.35
2022-08-07T07:04:32.669Z,34.00
2022-08-07T07:07:18.789Z,34.09
2022-08-07T07:09:53.091Z,33.66
2022-08-07T07:12:36.600Z,33.69
2022-08-07T07:15:23.749Z,34.29
2022-08-07T07:18:14.577Z,35.19
2022-08-07T07:21:19.372Z,35.27
2022-08-07T07:24:09.457Z,35.42
2022-08-07T07:26:51.862Z,35.50
2022-08-07T07:29:57.172Z,35.64
2022-08-07T07:32:19.004Z,36.17
2022-08-07T07:34:50.043Z,35.87
2022-08-07T07:37:45.354Z,36.11
2022-08-07T07:40:16.268Z,36.05
2022-08-07T07:42:51.102Z,35.89
2022-08-07T07:46:39.706Z,36.32
2022-08-07T07:48:35.081Z,35.71
2022-08-07T07:51:09.144Z,34.66
2022-08-07T07:53:52.121Z,34.23
2022-08-07T07:56:30.005Z,33.63
2022-08-07T07:59:02.343Z,33.72
2022-08-07T08:02:03.893Z,33.68
2022-08-07T08:04:25.698Z,34.41
2022-08-07T08:06:56.816Z,33.77
2022-08-07T08:09:51.674Z,33.00
2022-08-07T08:12:51.573Z,32.83
2022-08-07T08:15:16.970Z,32.61
2022-08-07T08:17:57.709Z,32.09
2022-08-07T08:20:33.712Z,32.07
2022-08-07T08:23:28.043Z,32.30
2022-08-07T08:26:18.942Z,32.00
2022-08-07T08:28:51.578Z,31.85
2022-08-07T08:31:30.273Z,32.39
2022-08-07T08:34:27.006Z,32.16
2022-08-07T08:36:58.810Z,32.16
2022-08-07T08:39:39.056Z,31.64
2022-08-07T08:42:18.483Z,32.22
2022-08-07T08:45:59.532Z,31.87
2022-08-07T08:48:56.250Z,31.93
2022-08-07T08:52:13.406Z,31.91
2022-08-07T08:54:54.117Z,31.58
2022-08-07T08:57:38.567Z,31.12
2022-08-07T09:00:10.401Z,30.54
2022-08-07T09:03:11.885Z,30.85
2022-08-07T09:06:07.511Z,30.50
2022-08-07T09:08:58.593Z,30.21
2022-08-07T09:11:43.808Z,29.67
2022-08-07T09:14:34.985Z,29.86
2022-08-07T09:17:59.360Z,30.03
2022-08-07T09:20:43.343Z,30.04
2022-08-07T09:24:54.171Z,30.30
2022-08-07T09:26:30.239Z,30.46
2022-08-07T09:30:03.804Z,30.21
2022-08-07T09:32:24.319Z,29.16
2022-08-07T09:36:04.274Z,29.17
2022-08-07T09:38:12.678Z,28.74
2022-08-07T09:41:07.281Z,28.62
2022-08-07T09:44:19.244Z,29.01
2022-08-07T09:47:42.627Z,29.28
2022-08-07T09:50:19.182Z,29.11
2022-08-07T09:52:53.990Z,29.37
2022-08-07T09:55:36.901Z,29.75
2022-08-07T09:58:54.139Z,31.74
2022-08-07T10:01:53.163Z,34.17
2022-08-07T10:04:32.979Z,33.16
2022-08-07T10:07:24.605Z,33.75
2022-08-07T10:11:16.431Z,33.36
2022-08-07T10:14:03.111Z,34.16
2022-08-07T10:16:47.183Z,34.80
2022-08-07T10:19:38.520Z,35.17
2022-08-07T10:22:33.344Z,34.28
2022-08-07T10:25:11.849Z,34.08
2022-08-07T10:28:10.566Z,32.94
2022-08-07T10:31:12.365Z,33.37
2022-08-07T10:34:27.206Z,32.75
2022-08-07T10:37:06.373Z,31.68
2022-08-07T10:40:02.951Z,30.63
2022-08-07T10:42:43.935Z,29.33
2022-08-07T10:45:57.427Z,29.12
2022-08-07T10:48:49.362Z,29.20
2022-08-07T10:51:39.045Z,29.14
2022-08-07T10:54:17.469Z,28.99
2022-08-07T10:57:15.483Z,28.96
2022-08-07T11:00:05.839Z,28.44
2022-08-07T11:02:53.912Z,28.06
2022-08-07T11:05:51.407Z,28.00
2022-08-07T11:08:30.308Z,27.84
2022-08-07T11:11:13.924Z,27.90
2022-08-07T11:14:46.197Z,27.52
2022-08-07T11:17:02.111Z,27.89
2022-08-07T11:19:44.362Z,27.87
2022-08-07T11:22:45.614Z,27.18
2022-08-07T11:25:31.588Z,27.21
2022-08-07T11:28:15.397Z,26.68
2022-08-07T11:31:20.550Z,26.65
2022-08-07T11:34:16.368Z,26.44
2022-08-07T11:37:06.781Z,26.28
2022-08-07T11:40:07.733Z,25.73
2022-08-07T11:42:47.522Z,25.53
2022-08-07T11:45:35.981Z,25.79
2022-08-07T11:48:29.582Z,25.75
2022-08-07T11:51:22.466Z,25.57
2022-08-07T11:54:37.910Z,25.42
2022-08-07T11:58:00.347Z,25.46
2022-08-07T12:00:38.882Z,25.53
2022-08-07T12:03:44.283Z,25.27
2022-08-07T12:06:37.637Z,25.54
2022-08-07T12:09:23.440Z,25.21
2022-08-07T12:12:12.108Z,25.28
2022-08-07T12:15:02.481Z,25.06
2022-08-07T12:18:12.528Z,25.36
2022-08-07T12:21:09.250Z,24.92
2022-08-07T12:24:06.771Z,24.83
2022-08-07T12:27:00.797Z,24.61
2022-08-07T12:29:43.396Z,24.33
2022-08-07T12:32:28.891Z,24.27
2022-08-07T12:35:02.922Z,24.41
2022-08-07T12:38:11.517Z,24.08
2022-08-07T12:40:47.740Z,24.20
2022-08-07T12:44:01.592Z,24.12
2022-08-07T12:46:26.548Z,23.72
2022-08-07T12:49:10.105Z,23.85
2022-08-07T12:52:12.174Z,23.33
2022-08-07T12:55:05.650Z,23.94
2022-08-07T12:58:01.367Z,23.26
2022-08-07T13:01:19.829Z,23.85
2022-08-07T13:04:09.823Z,23.94
2022-08-07T13:07:07.849Z,23.97
2022-08-07T13:10:29.202Z,24.50
2022-08-07T13:12:57.039Z,24.27
2022-08-07T13:15:35.696Z,24.09
2022-08-07T13:18:26.899Z,24.52
2022-08-07T13:21:08.215Z,33.70
2022-08-07T13:24:04.616Z,37.71
2022-08-07T13:26:52.458Z,40.05
2022-08-07T13:29:27.440Z,42.26
2022-08-07T13:32:31.832Z,43.45
2022-08-07T13:36:00.866Z,44.55
2022-08-07T13:38:45.492Z,46.04
2022-08-07T13:41:21.564Z,46.93
2022-08-07T13:43:55.918Z,50.46
2022-08-07T13:46:33.810Z,51.81
2022-08-07T13:50:32.841Z,54.25
2022-08-07T13:52:22.598Z,55.96
2022-08-07T13:54:55.842Z,57.29
2022-08-07T13:57:37.601Z,58.26
2022-08-07T14:00:13.429Z,59.44
2022-08-07T14:02:59.074Z,59.71
2022-08-07T14:05:38.054Z,60.44
2022-08-07T14:08:09.674Z,60.58
2022-08-07T14:10:43.718Z,61.37
2022-08-07T14:13:19.314Z,62.00
2022-08-07T14:16:04.283Z,62.25
2022-08-07T14:18:40.114Z,63.02
2022-08-07T14:21:20.874Z,63.65
2022-08-07T14:24:14.582Z,64.08
2022-08-07T14:27:00.930Z,63.69
2022-08-07T14:30:07.916Z,64.58
2022-08-07T14:32:47.039Z,64.50
2022-08-07T14:35:43.097Z,64.46
2022-08-07T14:38:26.147Z,63.50
2022-08-07T14:41:04.037Z,64.11
2022-08-07T14:43:58.342Z,63.69
2022-08-07T14:46:34.619Z,64.95
2022-08-07T14:49:55.872Z,65.41
2022-08-07T14:52:03.296Z,64.95
2022-08-07T14:57:54.462Z,65.40
2022-08-07T15:03:16.394Z,64.34
2022-08-07T15:05:54.778Z,64.98
2022-08-07T15:08:50.215Z,64.67
2022-08-07T15:11:54.455Z,65.30
2022-08-07T15:14:23.373Z,64.50
2022-08-07T15:17:22.770Z,64.57
2022-08-07T15:20:32.823Z,65.02
2022-08-07T15:22:54.098Z,64.39
2022-08-07T15:25:36.743Z,64.15
2022-08-07T15:28:32.278Z,64.56
2022-08-07T15:31:04.819Z,63.74
2022-08-07T15:33:36.488Z,63.17
2022-08-07T15:36:08.612Z,63.07
2022-08-07T15:38:51.450Z,63.55
2022-08-07T15:42:46.467Z,63.13
2022-08-07T15:44:23.643Z,63.60
2022-08-07T15:47:08.958Z,63.64
2022-08-07T15:50:05.039Z,63.93
2022-08-07T15:52:38.548Z,63.99
2022-08-07T15:55:12.258Z,64.56
2022-08-07T15:57:49.510Z,65.26
2022-08-07T16:00:31.824Z,65.79
2022-08-07T16:03:20.988Z,66.25
2022-08-07T16:06:00.105Z,66.56
2022-08-07T16:08:38.187Z,66.03
2022-08-07T16:11:26.928Z,66.26
2022-08-07T16:14:12.320Z,66.19
2022-08-07T16:16:56.714Z,65.88
2022-08-07T16:19:58.995Z,65.88
2022-08-07T16:22:54.517Z,66.12
2022-08-07T16:25:52.563Z,66.93
2022-08-07T16:30:08.246Z,67.53
2022-08-07T16:31:51.818Z,68.14
2022-08-07T16:34:48.850Z,67.73
2022-08-07T16:38:06.538Z,68.01
2022-08-07T16:41:17.420Z,68.08
2022-08-07T16:44:47.325Z,67.97
2022-08-07T16:47:51.602Z,67.88
2022-08-07T16:51:21.035Z,68.17
2022-08-07T16:54:16.739Z,67.58
2022-08-07T16:56:55.218Z,67.52
2022-08-07T16:59:55.867Z,67.63
2022-08-07T17:02:51.750Z,67.83
2022-08-07T17:06:19.379Z,68.32
2022-08-07T17:08:19.942Z,67.92
2022-08-07T17:10:59.129Z,68.00
2022-08-07T17:13:41.600Z,67.73
2022-08-07T17:16:29.983Z,68.53
2022-08-07T17:19:01.687Z,68.47
2022-08-07T17:21:50.844Z,69.45
2022-08-07T17:24:38.652Z,70.35
2022-08-07T17:27:34.815Z,71.09
2022-08-07T17:30:18.090Z,71.39
2022-08-07T17:33:02.674Z,71.20
2022-08-07T17:35:58.542Z,70.89
2022-08-07T17:38:40.341Z,71.76
2022-08-07T17:42:04.282Z,71.39
2022-08-07T17:44:33.732Z,71.71
2022-08-07T17:47:16.952Z,71.89
2022-08-07T17:50:30.413Z,72.00
2022-08-07T17:54:00.536Z,72.56
2022-08-07T17:56:36.329Z,72.60
2022-08-07T17:59:35.591Z,72.04
2022-08-07T18:02:12.043Z,71.82
2022-08-07T18:05:20.658Z,71.47
2022-08-07T18:08:24.257Z,71.95
2022-08-07T18:11:53.715Z,72.16
2022-08-07T18:14:45.040Z,72.61
2022-08-07T18:18:47.400Z,73.31
2022-08-07T18:21:09.614Z,73.07
2022-08-07T18:23:43.721Z,72.73
2022-08-07T18:26:26.448Z,73.55
2022-08-07T18:30:05.425Z,73.15
2022-08-07T18:32:26.207Z,73.26
2022-08-07T18:35:50.320Z,73.33
2022-08-07T18:38:55.691Z,73.36
2022-08-07T18:41:45.784Z,73.71
2022-08-07T18:44:32.761Z,73.48
2022-08-07T18:47:20.688Z,73.47
2022-08-07T18:50:39.377Z,73.24
2022-08-07T18:53:12.534Z,73.08
2022-08-07T18:55:57.326Z,72.75
2022-08-07T18:58:36.011Z,72.61
2022-08-07T19:02:17.324Z,72.54
2022-08-07T19:04:13.241Z,72.79
2022-08-07T19:07:02.660Z,72.90
2022-08-07T19:09:55.838Z,73.59
2022-08-07T19:12:48.590Z,73.40
2022-08-07T19:16:04.216Z,73.31
2022-08-07T19:18:34.828Z,73.17
2022-08-07T19:21:46.629Z,72.96
2022-08-07T19:24:30.770Z,73.24
2022-08-07T19:28:29.920Z,72.74
2022-08-07T19:31:05.607Z,72.45
2022-08-07T19:33:08.351Z,72.28
2022-08-07T19:35:48.171Z,72.45
2022-08-07T19:38:20.578Z,72.07
2022-08-07T19:40:51.888Z,72.17
2022-08-07T19:43:44.879Z,71.96
2022-08-07T19:46:17.848Z,71.95
2022-08-07T19:48:53.788Z,71.79
2022-08-07T19:51:50.908Z,71.75
2022-08-07T19:54:33.986Z,71.82
2022-08-07T19:58:01.512Z,71.84
2022-08-07T20:00:02.610Z,71.61
2022-08-07T20:02:52.147Z,71.67
2022-08-07T20:05:28.036Z,70.38
2022-08-07T20:08:04.410Z,70.59
2022-08-07T20:10:55.161Z,71.00
2022-08-07T20:13:34.717Z,71.01
2022-08-07T20:16:22.422Z,70.84
2022-08-07T20:19:02.362Z,70.63
2022-08-07T20:21:41.791Z,70.02
2022-08-07T20:24:28.486Z,70.58
2022-08-07T20:27:11.682Z,71.14
2022-08-07T20:29:58.392Z,68.35
2022-08-07T20:32:40.416Z,68.10
2022-08-07T20:35:16.051Z,68.34
2022-08-07T20:37:58.423Z,68.82
2022-08-07T20:40:41.311Z,69.03
2022-08-07T20:43:16.976Z,67.89
2022-08-07T20:46:30.278Z,67.32
2022-08-07T20:49:53.915Z,67.50
2022-08-07T20:51:35.742Z,67.45
2022-08-07T20:54:15.111Z,66.98
2022-08-07T20:56:52.156Z,67.15
2022-08-07T21:00:04.316Z,67.30
2022-08-07T21:02:40.291Z,67.02
2022-08-07T21:05:16.623Z,67.34
2022-08-07T21:07:49.860Z,67.25
2022-08-07T21:10:25.278Z,67.30
2022-08-07T21:13:04.263Z,68.08
2022-08-07T21:15:58.579Z,67.97
2022-08-07T21:18:33.633Z,67.95
2022-08-07T21:21:04.793Z,67.80
2022-08-07T21:24:02.564Z,66.05
2022-08-07T21:26:42.853Z,66.14
2022-08-07T21:29:18.260Z,66.88
2022-08-07T21:32:43.760Z,67.87
2022-08-07T21:35:15.861Z,68.22
2022-08-07T21:38:31.458Z,68.38
2022-08-07T21:41:10.919Z,68.67
2022-08-07T21:43:55.930Z,68.54
2022-08-07T21:46:50.530Z,68.45
2022-08-07T21:50:03.598Z,67.95
2022-08-07T21:52:35.905Z,68.45
2022-08-07T21:55:28.147Z,69.00
2022-08-07T21:58:12.297Z,69.01
2022-08-07T22:01:05.199Z,69.28
2022-08-07T22:03:48.393Z,68.91
2022-08-07T22:06:30.408Z,69.17
2022-08-07T22:09:07.030Z,69.00
2022-08-07T22:12:05.464Z,69.44
2022-08-07T22:14:44.114Z,69.27
2022-08-07T22:17:44.403Z,69.66
2022-08-07T22:20:23.322Z,70.51
2022-08-07T22:23:13.371Z,71.25
2022-08-07T22:26:12.435Z,72.07
2022-08-07T22:29:13.959Z,72.68
2022-08-07T22:32:05.523Z,73.49
2022-08-07T22:34:53.399Z,74.36
2022-08-07T22:38:04.390Z,72.99
2022-08-07T22:41:11.399Z,73.58
2022-08-07T22:43:44.419Z,74.99
2022-08-07T22:46:47.065Z,74.39
2022-08-07T22:49:27.870Z,74.03
2022-08-07T22:52:37.684Z,75.30
2022-08-07T22:55:23.579Z,76.58
2022-08-07T22:58:27.660Z,75.86
2022-08-07T23:01:15.569Z,76.04
2022-08-07T23:04:16.294Z,75.37
2022-08-07T23:07:00.976Z,74.64
2022-08-07T23:10:03.734Z,74.77
2022-08-07T23:12:44.523Z,74.44
2022-08-07T23:16:06.093Z,73.18
2022-08-07T23:18:33.947Z,73.41
2022-08-07T23:21:29.799Z,72.88
2022-08-07T23:24:47.679Z,73.05
2022-08-07T23:28:20.322Z,73.14
2022-08-07T23:30:46.721Z,73.07
2022-08-07T23:34:21.275Z,73.35
2022-08-07T23:37:19.667Z,73.07
2022-08-07T23:40:26.240Z,73.00
2022-08-07T23:43:37.988Z,72.79
2022-08-07T23:46:30.420Z,72.78
2022-08-07T23:49:23.048Z,73.33
2022-08-07T23:53:01.448Z,73.52
2022-08-07T23:55:51.846Z,73.63
2022-08-07T23:58:21.629Z,73.56
